CheckWX is a tool to help pilots better visualize weather data.  It is not intended as a substitute for an official pre-flight weather briefing.

20:43:39 UTC

KJGG METAR
Williamsburg-Jamestown Airport
Williamsburg, Virginia, USA
Current

29 mins ago

KJGG 182015Z AUTO 32011G18KT 10SM CLR 16/04 A3003 RMK AO1
Observed
Feb-18 @ 20:15 UTC
Wind
  • 320° at 11 KTS
  • Gusting to 18 KTS
Visibility
10 SM
Flight Rules
VFR
Cloud Levels
  • Clear skies
Temperature
16°C / 61°F
Dewpoint
C / 39°F
Humidity
45%
Altimeter
30.03" Hg
Pressure
1016.92 hPa
Previous

1 hour ago

KJGG 181935Z AUTO 32014KT 280V340 10SM CLR 17/06 A3001 RMK AO1
Observed
Feb-18 @ 19:35 UTC
Wind
  • 320° at 14 KTS
Visibility
10 SM
Flight Rules
VFR
Cloud Levels
  • Clear skies
Temperature
17°C / 63°F
Dewpoint
C / 43°F
Humidity
49%
Altimeter
30.01" Hg
Pressure
1016.22 hPa
Previous

1 hour ago

KJGG 181915Z AUTO 29010G16KT 10SM CLR 17/06 A3001 RMK AO1
Observed
Feb-18 @ 19:15 UTC
Wind
  • 290° at 10 KTS
  • Gusting to 16 KTS
Visibility
10 SM
Flight Rules
VFR
Cloud Levels
  • Clear skies
Temperature
17°C / 63°F
Dewpoint
C / 43°F
Humidity
49%
Altimeter
30.01" Hg
Pressure
1016.22 hPa